KOUN/OUN METAR and TAF weather

Enter ICAO airport designator
Station Type Date Time Source
KOUN METAR 2020/07/09 22:45 UTC NOAA

KOUN 092245Z 07016KT 10SM SCT030 SCT047 31/24 A2985


Station Type Date Time Source
KOUN Decoded METAR 2020/07/09 22:45 UTC NOAA

Norman / Max Westheimer, OK, United States (KOUN) 35-13N 097-27W 357M
Jul 09, 2020 - 06:45 PM EDT / 2020.07.09 2245 UTC
Wind: from the ENE (070 degrees) at 18 MPH (16 KT):0
Visibility: 10 mile(s):0
Sky conditions: partly cloudy
Temperature: 87 F (31 C)
Heat index: 95.7 F (35.4 C):1
Dew Point: 75 F (24 C)
Relative Humidity: 66%
Pressure (altimeter): 29.85 in. Hg (1010 hPa)
ob: KOUN 092245Z 07016KT 10SM SCT030 SCT047 31/24 A2985
cycle: 23

Station Type Date Time Source
KOUN TAF 2020/07/09 18:24 UTC NOAA

TAF KOUN 091722Z 0918/1018 18011G17KT P6SM FEW250
FM100200 13011KT P6SM SCT040 SCT120 BKN200
FM100900 09011KT P6SM BKN050 OVC200
FM101400 15009G20KT P6SM SCT250

Example: see airport list